sensor_id;sensor_type;location;lat;lon;timestamp;temperature;humidity
25214;DHT22;13160;51.834;4.706;2022-12-18T00:00:10;-0.80;99.90
25214;DHT22;13160;51.834;4.706;2022-12-18T00:02:39;-0.90;99.90
25214;DHT22;13160;51.834;4.706;2022-12-18T00:05:08;-0.90;99.90
25214;DHT22;13160;51.834;4.706;2022-12-18T00:07:36;-0.90;99.90
25214;DHT22;13160;51.834;4.706;2022-12-18T00:10:06;-0.90;99.90
25214;DHT22;13160;51.834;4.706;2022-12-18T00:12:37;-0.90;99.90
25214;DHT22;13160;51.834;4.706;2022-12-18T00:15:06;-0.90;99.90
25214;DHT22;13160;51.834;4.706;2022-12-18T00:17:35;-1.00;99.90
25214;DHT22;13160;51.834;4.706;2022-12-18T00:20:04;-1.00;99.90
25214;DHT22;13160;51.834;4.706;2022-12-18T00:22:33;-1.00;99.90
25214;DHT22;13160;51.834;4.706;2022-12-18T00:25:01;-1.00;99.90
25214;DHT22;13160;51.834;4.706;2022-12-18T00:27:30;-1.00;99.90
25214;DHT22;13160;51.834;4.706;2022-12-18T00:30:00;-1.00;99.90
25214;DHT22;13160;51.834;4.706;2022-12-18T00:32:29;-1.00;99.90
25214;DHT22;13160;51.834;4.706;2022-12-18T00:34:58;-1.00;99.90
25214;DHT22;13160;51.834;4.706;2022-12-18T00:37:26;-1.10;99.90
25214;DHT22;13160;51.834;4.706;2022-12-18T00:39:55;-1.10;99.90
25214;DHT22;13160;51.834;4.706;2022-12-18T00:42:23;-1.10;99.90
25214;DHT22;13160;51.834;4.706;2022-12-18T00:45:11;-1.10;99.90
25214;DHT22;13160;51.834;4.706;2022-12-18T00:47:40;-1.10;99.90
25214;DHT22;13160;51.834;4.706;2022-12-18T00:50:09;-1.10;99.90
25214;DHT22;13160;51.834;4.706;2022-12-18T00:52:38;-1.10;99.90
25214;DHT22;13160;51.834;4.706;2022-12-18T00:55:07;-1.10;99.90
25214;DHT22;13160;51.834;4.706;2022-12-18T00:57:36;-1.10;99.90
25214;DHT22;13160;51.834;4.706;2022-12-18T01:00:08;-1.10;99.90
25214;DHT22;13160;51.834;4.706;2022-12-18T01:02:40;-1.10;99.90
25214;DHT22;13160;51.834;4.706;2022-12-18T01:05:11;-1.10;99.90
25214;DHT22;13160;51.834;4.706;2022-12-18T01:07:40;-1.10;99.90
25214;DHT22;13160;51.834;4.706;2022-12-18T01:10:12;-1.20;99.90
25214;DHT22;13160;51.834;4.706;2022-12-18T01:12:41;-1.20;99.90
25214;DHT22;13160;51.834;4.706;2022-12-18T01:15:10;-1.20;99.90
25214;DHT22;13160;51.834;4.706;2022-12-18T01:17:42;-1.20;99.90
25214;DHT22;13160;51.834;4.706;2022-12-18T01:20:12;-1.20;99.90
25214;DHT22;13160;51.834;4.706;2022-12-18T01:22:41;-1.30;99.90
25214;DHT22;13160;51.834;4.706;2022-12-18T01:25:10;-1.30;99.90
25214;DHT22;13160;51.834;4.706;2022-12-18T01:27:38;-1.30;99.90
25214;DHT22;13160;51.834;4.706;2022-12-18T01:30:07;-1.30;99.90
25214;DHT22;13160;51.834;4.706;2022-12-18T01:32:37;-1.30;99.90
25214;DHT22;13160;51.834;4.706;2022-12-18T01:35:08;-1.30;99.90
25214;DHT22;13160;51.834;4.706;2022-12-18T01:37:36;-1.30;99.90
25214;DHT22;13160;51.834;4.706;2022-12-18T01:40:07;-1.30;99.90
25214;DHT22;13160;51.834;4.706;2022-12-18T01:42:36;-1.30;99.90
25214;DHT22;13160;51.834;4.706;2022-12-18T01:45:08;-1.30;99.90
25214;DHT22;13160;51.834;4.706;2022-12-18T01:47:53;-1.40;99.90
25214;DHT22;13160;51.834;4.706;2022-12-18T01:50:28;-1.40;99.90
25214;DHT22;13160;51.834;4.706;2022-12-18T01:53:03;-1.40;99.90
25214;DHT22;13160;51.834;4.706;2022-12-18T01:55:37;-1.40;99.90
25214;DHT22;13160;51.834;4.706;2022-12-18T01:58:09;-1.40;99.90
25214;DHT22;13160;51.834;4.706;2022-12-18T02:00:38;-1.50;99.90
25214;DHT22;13160;51.834;4.706;2022-12-18T02:03:07;-1.50;99.90
25214;DHT22;13160;51.834;4.706;2022-12-18T02:05:43;-1.40;99.90
25214;DHT22;13160;51.834;4.706;2022-12-18T02:08:17;-1.40;99.90
25214;DHT22;13160;51.834;4.706;2022-12-18T02:10:55;-1.50;99.90
25214;DHT22;13160;51.834;4.706;2022-12-18T02:13:32;-1.50;99.90
25214;DHT22;13160;51.834;4.706;2022-12-18T02:16:13;-1.60;99.90
25214;DHT22;13160;51.834;4.706;2022-12-18T02:18:49;-1.70;99.90
25214;DHT22;13160;51.834;4.706;2022-12-18T02:21:28;-1.70;99.90
25214;DHT22;13160;51.834;4.706;2022-12-18T02:24:15;-1.80;99.90
25214;DHT22;13160;51.834;4.706;2022-12-18T02:26:49;-1.80;99.90
25214;DHT22;13160;51.834;4.706;2022-12-18T02:29:22;-1.80;99.90
25214;DHT22;13160;51.834;4.706;2022-12-18T02:31:56;-1.80;99.90
25214;DHT22;13160;51.834;4.706;2022-12-18T02:34:28;-1.80;99.90
25214;DHT22;13160;51.834;4.706;2022-12-18T02:36:59;-1.80;99.90
25214;DHT22;13160;51.834;4.706;2022-12-18T02:39:31;-1.80;99.90
25214;DHT22;13160;51.834;4.706;2022-12-18T02:42:02;-1.90;99.90
25214;DHT22;13160;51.834;4.706;2022-12-18T02:44:35;-1.90;99.90
25214;DHT22;13160;51.834;4.706;2022-12-18T02:47:10;-2.00;99.90
25214;DHT22;13160;51.834;4.706;2022-12-18T02:49:44;-2.00;99.90
25214;DHT22;13160;51.834;4.706;2022-12-18T02:52:27;-2.00;99.90
25214;DHT22;13160;51.834;4.706;2022-12-18T02:55:05;-2.10;99.90
25214;DHT22;13160;51.834;4.706;2022-12-18T02:57:45;-2.20;99.90
25214;DHT22;13160;51.834;4.706;2022-12-18T03:00:19;-2.10;99.90
25214;DHT22;13160;51.834;4.706;2022-12-18T03:02:55;-2.20;99.90
25214;DHT22;13160;51.834;4.706;2022-12-18T03:05:33;-2.20;99.90
25214;DHT22;13160;51.834;4.706;2022-12-18T03:08:07;-2.10;99.90
25214;DHT22;13160;51.834;4.706;2022-12-18T03:10:41;-2.20;99.90
25214;DHT22;13160;51.834;4.706;2022-12-18T03:13:16;-2.20;99.90
25214;DHT22;13160;51.834;4.706;2022-12-18T03:15:50;-2.20;99.90
25214;DHT22;13160;51.834;4.706;2022-12-18T03:18:24;-2.30;99.90
25214;DHT22;13160;51.834;4.706;2022-12-18T03:20:58;-2.30;99.90
25214;DHT22;13160;51.834;4.706;2022-12-18T03:23:32;-2.30;99.90
25214;DHT22;13160;51.834;4.706;2022-12-18T03:26:07;-2.30;99.90
25214;DHT22;13160;51.834;4.706;2022-12-18T03:28:44;-2.30;99.90
25214;DHT22;13160;51.834;4.706;2022-12-18T03:31:14;-2.30;99.90
25214;DHT22;13160;51.834;4.706;2022-12-18T03:33:46;-2.40;99.90
25214;DHT22;13160;51.834;4.706;2022-12-18T03:36:16;-2.40;99.90
25214;DHT22;13160;51.834;4.706;2022-12-18T03:38:45;-2.40;99.90
25214;DHT22;13160;51.834;4.706;2022-12-18T03:41:18;-2.50;99.90
25214;DHT22;13160;51.834;4.706;2022-12-18T03:43:54;-2.50;99.90
25214;DHT22;13160;51.834;4.706;2022-12-18T03:46:29;-2.50;99.90
25214;DHT22;13160;51.834;4.706;2022-12-18T03:49:05;-2.60;99.90
25214;DHT22;13160;51.834;4.706;2022-12-18T03:51:40;-2.60;99.90
25214;DHT22;13160;51.834;4.706;2022-12-18T03:54:12;-2.60;99.90
25214;DHT22;13160;51.834;4.706;2022-12-18T03:56:44;-2.60;99.90
25214;DHT22;13160;51.834;4.706;2022-12-18T03:59:16;-2.60;99.90
25214;DHT22;13160;51.834;4.706;2022-12-18T04:01:47;-2.60;99.90
25214;DHT22;13160;51.834;4.706;2022-12-18T04:04:18;-2.60;99.90
25214;DHT22;13160;51.834;4.706;2022-12-18T04:06:48;-2.70;99.90
25214;DHT22;13160;51.834;4.706;2022-12-18T04:09:18;-2.70;99.90
25214;DHT22;13160;51.834;4.706;2022-12-18T04:11:48;-2.70;99.90
25214;DHT22;13160;51.834;4.706;2022-12-18T04:14:18;-2.70;99.90
25214;DHT22;13160;51.834;4.706;2022-12-18T04:16:46;-2.70;99.90
25214;DHT22;13160;51.834;4.706;2022-12-18T04:19:15;-2.70;99.90
25214;DHT22;13160;51.834;4.706;2022-12-18T04:21:43;-2.70;99.90
25214;DHT22;13160;51.834;4.706;2022-12-18T04:24:11;-2.80;99.90
25214;DHT22;13160;51.834;4.706;2022-12-18T04:26:40;-2.80;99.90
25214;DHT22;13160;51.834;4.706;2022-12-18T04:29:08;-2.80;99.90
25214;DHT22;13160;51.834;4.706;2022-12-18T04:31:38;-2.80;99.90
25214;DHT22;13160;51.834;4.706;2022-12-18T04:34:06;-2.80;99.90
25214;DHT22;13160;51.834;4.706;2022-12-18T04:36:35;-2.80;99.90
25214;DHT22;13160;51.834;4.706;2022-12-18T04:39:03;-2.90;99.90
25214;DHT22;13160;51.834;4.706;2022-12-18T04:41:32;-2.90;99.90
25214;DHT22;13160;51.834;4.706;2022-12-18T04:44:00;-2.90;99.90
25214;DHT22;13160;51.834;4.706;2022-12-18T04:46:29;-3.00;99.90
25214;DHT22;13160;51.834;4.706;2022-12-18T04:48:59;-3.00;99.90
25214;DHT22;13160;51.834;4.706;2022-12-18T04:51:27;-3.00;99.90
25214;DHT22;13160;51.834;4.706;2022-12-18T04:53:56;-3.00;99.90
25214;DHT22;13160;51.834;4.706;2022-12-18T04:56:24;-3.00;99.90
25214;DHT22;13160;51.834;4.706;2022-12-18T04:58:52;-3.00;99.90
25214;DHT22;13160;51.834;4.706;2022-12-18T05:01:21;-3.00;99.90
25214;DHT22;13160;51.834;4.706;2022-12-18T05:03:53;-3.10;99.90
25214;DHT22;13160;51.834;4.706;2022-12-18T05:06:24;-3.10;99.90
25214;DHT22;13160;51.834;4.706;2022-12-18T05:08:52;-3.10;99.90
25214;DHT22;13160;51.834;4.706;2022-12-18T05:11:21;-3.10;99.90
25214;DHT22;13160;51.834;4.706;2022-12-18T05:13:49;-3.10;99.90
25214;DHT22;13160;51.834;4.706;2022-12-18T05:16:18;-3.10;99.90
25214;DHT22;13160;51.834;4.706;2022-12-18T05:18:46;-3.10;99.90
25214;DHT22;13160;51.834;4.706;2022-12-18T05:21:14;-3.10;99.90
25214;DHT22;13160;51.834;4.706;2022-12-18T05:23:44;-3.10;99.90
25214;DHT22;13160;51.834;4.706;2022-12-18T05:26:15;-3.10;99.90
25214;DHT22;13160;51.834;4.706;2022-12-18T05:28:45;-3.10;99.90
25214;DHT22;13160;51.834;4.706;2022-12-18T05:31:14;-3.20;99.90
25214;DHT22;13160;51.834;4.706;2022-12-18T05:33:42;-3.20;99.90
25214;DHT22;13160;51.834;4.706;2022-12-18T05:36:11;-3.20;99.90
25214;DHT22;13160;51.834;4.706;2022-12-18T05:38:39;-3.20;99.90
25214;DHT22;13160;51.834;4.706;2022-12-18T05:41:09;-3.20;99.90
25214;DHT22;13160;51.834;4.706;2022-12-18T05:43:39;-3.20;99.90
25214;DHT22;13160;51.834;4.706;2022-12-18T05:46:12;-3.20;99.90
25214;DHT22;13160;51.834;4.706;2022-12-18T05:48:41;-3.20;99.90
25214;DHT22;13160;51.834;4.706;2022-12-18T05:51:11;-3.20;99.90
25214;DHT22;13160;51.834;4.706;2022-12-18T05:53:42;-3.20;99.90
25214;DHT22;13160;51.834;4.706;2022-12-18T05:56:14;-3.20;99.90
25214;DHT22;13160;51.834;4.706;2022-12-18T05:58:44;-3.20;99.90
25214;DHT22;13160;51.834;4.706;2022-12-18T06:01:16;-3.20;99.90
25214;DHT22;13160;51.834;4.706;2022-12-18T06:03:46;-3.20;99.90
25214;DHT22;13160;51.834;4.706;2022-12-18T06:06:16;-3.20;99.90
25214;DHT22;13160;51.834;4.706;2022-12-18T06:08:46;-3.20;99.90
25214;DHT22;13160;51.834;4.706;2022-12-18T06:11:17;-3.20;99.90
25214;DHT22;13160;51.834;4.706;2022-12-18T06:13:49;-3.20;99.90
25214;DHT22;13160;51.834;4.706;2022-12-18T06:16:24;-3.20;99.90
25214;DHT22;13160;51.834;4.706;2022-12-18T06:18:53;-3.30;99.90
25214;DHT22;13160;51.834;4.706;2022-12-18T06:21:21;-3.30;99.90
25214;DHT22;13160;51.834;4.706;2022-12-18T06:23:49;-3.30;99.90
25214;DHT22;13160;51.834;4.706;2022-12-18T06:26:19;-3.30;99.90
25214;DHT22;13160;51.834;4.706;2022-12-18T06:28:54;-3.30;99.90
25214;DHT22;13160;51.834;4.706;2022-12-18T06:31:23;-3.30;99.90
25214;DHT22;13160;51.834;4.706;2022-12-18T06:33:52;-3.30;99.90
25214;DHT22;13160;51.834;4.706;2022-12-18T06:36:21;-3.30;99.90
25214;DHT22;13160;51.834;4.706;2022-12-18T06:38:49;-3.30;99.90
25214;DHT22;13160;51.834;4.706;2022-12-18T06:41:21;-3.30;99.90
25214;DHT22;13160;51.834;4.706;2022-12-18T06:43:50;-3.30;99.90
25214;DHT22;13160;51.834;4.706;2022-12-18T06:46:25;-3.30;99.90
25214;DHT22;13160;51.834;4.706;2022-12-18T06:48:53;-3.30;99.90
25214;DHT22;13160;51.834;4.706;2022-12-18T06:51:24;-3.30;99.90
25214;DHT22;13160;51.834;4.706;2022-12-18T06:53:52;-3.30;99.90
25214;DHT22;13160;51.834;4.706;2022-12-18T06:56:22;-3.30;99.90
25214;DHT22;13160;51.834;4.706;2022-12-18T06:58:51;-3.30;99.90
25214;DHT22;13160;51.834;4.706;2022-12-18T07:01:19;-3.30;99.90
25214;DHT22;13160;51.834;4.706;2022-12-18T07:03:52;-3.30;99.90
25214;DHT22;13160;51.834;4.706;2022-12-18T07:06:23;-3.30;99.90
25214;DHT22;13160;51.834;4.706;2022-12-18T07:08:53;-3.30;99.90
25214;DHT22;13160;51.834;4.706;2022-12-18T07:11:24;-3.30;99.90
25214;DHT22;13160;51.834;4.706;2022-12-18T07:13:52;-3.30;99.90
25214;DHT22;13160;51.834;4.706;2022-12-18T07:16:22;-3.30;99.90
25214;DHT22;13160;51.834;4.706;2022-12-18T07:18:52;-3.30;99.90
25214;DHT22;13160;51.834;4.706;2022-12-18T07:21:20;-3.40;99.90
25214;DHT22;13160;51.834;4.706;2022-12-18T07:23:50;-3.40;99.90
25214;DHT22;13160;51.834;4.706;2022-12-18T07:26:20;-3.40;99.90
25214;DHT22;13160;51.834;4.706;2022-12-18T07:28:54;-3.40;99.90
25214;DHT22;13160;51.834;4.706;2022-12-18T07:31:24;-3.40;99.90
25214;DHT22;13160;51.834;4.706;2022-12-18T07:33:54;-3.40;99.90
25214;DHT22;13160;51.834;4.706;2022-12-18T07:36:23;-3.50;99.90
25214;DHT22;13160;51.834;4.706;2022-12-18T07:38:51;-3.40;99.90
25214;DHT22;13160;51.834;4.706;2022-12-18T07:41:20;-3.40;99.90
25214;DHT22;13160;51.834;4.706;2022-12-18T07:43:50;-3.50;99.90
25214;DHT22;13160;51.834;4.706;2022-12-18T07:46:19;-3.50;99.90
25214;DHT22;13160;51.834;4.706;2022-12-18T07:48:47;-3.40;99.90
25214;DHT22;13160;51.834;4.706;2022-12-18T07:51:17;-3.40;99.90
25214;DHT22;13160;51.834;4.706;2022-12-18T07:53:45;-3.40;99.90
25214;DHT22;13160;51.834;4.706;2022-12-18T07:56:18;-3.40;99.90
25214;DHT22;13160;51.834;4.706;2022-12-18T07:58:58;-3.40;99.90
25214;DHT22;13160;51.834;4.706;2022-12-18T08:01:27;-3.40;99.90
25214;DHT22;13160;51.834;4.706;2022-12-18T08:03:57;-3.30;99.90
25214;DHT22;13160;51.834;4.706;2022-12-18T08:06:26;-3.30;99.90
25214;DHT22;13160;51.834;4.706;2022-12-18T08:08:55;-3.30;99.90
25214;DHT22;13160;51.834;4.706;2022-12-18T08:11:25;-3.30;99.90
25214;DHT22;13160;51.834;4.706;2022-12-18T08:13:54;-3.30;99.90
25214;DHT22;13160;51.834;4.706;2022-12-18T08:16:25;-3.30;99.90
25214;DHT22;13160;51.834;4.706;2022-12-18T08:18:54;-3.20;99.90
25214;DHT22;13160;51.834;4.706;2022-12-18T08:21:24;-3.30;99.90
25214;DHT22;13160;51.834;4.706;2022-12-18T08:23:56;-3.20;99.90
25214;DHT22;13160;51.834;4.706;2022-12-18T08:26:27;-3.20;99.90
25214;DHT22;13160;51.834;4.706;2022-12-18T08:28:58;-3.20;99.90
25214;DHT22;13160;51.834;4.706;2022-12-18T08:31:30;-3.20;99.90
25214;DHT22;13160;51.834;4.706;2022-12-18T08:34:00;-3.20;99.90
25214;DHT22;13160;51.834;4.706;2022-12-18T08:36:28;-3.20;99.90
25214;DHT22;13160;51.834;4.706;2022-12-18T08:38:56;-3.20;99.90
25214;DHT22;13160;51.834;4.706;2022-12-18T08:41:26;-3.20;99.90
25214;DHT22;13160;51.834;4.706;2022-12-18T08:43:54;-3.10;99.90
25214;DHT22;13160;51.834;4.706;2022-12-18T08:46:43;-3.10;99.90
25214;DHT22;13160;51.834;4.706;2022-12-18T08:49:11;-3.10;99.90
25214;DHT22;13160;51.834;4.706;2022-12-18T08:51:40;-3.10;99.90
25214;DHT22;13160;51.834;4.706;2022-12-18T08:54:11;-3.00;99.90
25214;DHT22;13160;51.834;4.706;2022-12-18T08:56:40;-3.00;99.90
25214;DHT22;13160;51.834;4.706;2022-12-18T08:59:08;-3.00;99.90
25214;DHT22;13160;51.834;4.706;2022-12-18T09:01:46;-2.90;99.90
25214;DHT22;13160;51.834;4.706;2022-12-18T09:04:16;-2.90;99.90
25214;DHT22;13160;51.834;4.706;2022-12-18T09:06:44;-2.90;99.90
25214;DHT22;13160;51.834;4.706;2022-12-18T09:09:13;-2.80;99.90
25214;DHT22;13160;51.834;4.706;2022-12-18T09:11:42;-2.80;99.90
25214;DHT22;13160;51.834;4.706;2022-12-18T09:14:11;-2.70;99.90
25214;DHT22;13160;51.834;4.706;2022-12-18T09:16:39;-2.70;99.90
25214;DHT22;13160;51.834;4.706;2022-12-18T09:19:10;-2.70;99.90
25214;DHT22;13160;51.834;4.706;2022-12-18T09:21:38;-2.60;99.90
25214;DHT22;13160;51.834;4.706;2022-12-18T09:24:14;-2.60;99.90
25214;DHT22;13160;51.834;4.706;2022-12-18T09:26:43;-2.60;99.90
25214;DHT22;13160;51.834;4.706;2022-12-18T09:29:14;-2.60;99.90
25214;DHT22;13160;51.834;4.706;2022-12-18T09:31:44;-2.60;99.90
25214;DHT22;13160;51.834;4.706;2022-12-18T09:34:15;-2.50;99.90
25214;DHT22;13160;51.834;4.706;2022-12-18T09:36:43;-2.50;99.90
25214;DHT22;13160;51.834;4.706;2022-12-18T09:39:13;-2.50;99.90
25214;DHT22;13160;51.834;4.706;2022-12-18T09:41:45;-2.40;99.90
25214;DHT22;13160;51.834;4.706;2022-12-18T09:44:24;-2.40;99.90
25214;DHT22;13160;51.834;4.706;2022-12-18T09:47:12;-2.40;99.90
25214;DHT22;13160;51.834;4.706;2022-12-18T09:49:46;-2.30;99.90
25214;DHT22;13160;51.834;4.706;2022-12-18T09:52:21;-2.30;99.90
25214;DHT22;13160;51.834;4.706;2022-12-18T09:54:56;-2.30;99.90
25214;DHT22;13160;51.834;4.706;2022-12-18T09:57:31;-2.30;99.90
25214;DHT22;13160;51.834;4.706;2022-12-18T10:00:04;-2.20;99.90
25214;DHT22;13160;51.834;4.706;2022-12-18T10:02:37;-2.10;99.90
25214;DHT22;13160;51.834;4.706;2022-12-18T10:05:11;-2.10;99.90
25214;DHT22;13160;51.834;4.706;2022-12-18T10:07:58;-2.10;99.90
25214;DHT22;13160;51.834;4.706;2022-12-18T10:10:36;-2.00;99.90
25214;DHT22;13160;51.834;4.706;2022-12-18T10:13:15;-2.00;99.90
25214;DHT22;13160;51.834;4.706;2022-12-18T10:15:59;-1.90;99.90
25214;DHT22;13160;51.834;4.706;2022-12-18T10:18:43;-1.90;99.90
25214;DHT22;13160;51.834;4.706;2022-12-18T10:21:30;-1.80;99.90
25214;DHT22;13160;51.834;4.706;2022-12-18T10:24:12;-1.80;99.90
25214;DHT22;13160;51.834;4.706;2022-12-18T10:26:45;-1.80;99.90
25214;DHT22;13160;51.834;4.706;2022-12-18T10:29:16;-1.80;99.90
25214;DHT22;13160;51.834;4.706;2022-12-18T10:31:44;-1.80;99.90
25214;DHT22;13160;51.834;4.706;2022-12-18T10:34:14;-1.70;99.90
25214;DHT22;13160;51.834;4.706;2022-12-18T10:36:44;-1.70;99.90
25214;DHT22;13160;51.834;4.706;2022-12-18T10:39:17;-1.70;99.90
25214;DHT22;13160;51.834;4.706;2022-12-18T10:41:46;-1.60;99.90
25214;DHT22;13160;51.834;4.706;2022-12-18T10:44:18;-1.60;99.90
25214;DHT22;13160;51.834;4.706;2022-12-18T10:46:49;-1.50;99.90
25214;DHT22;13160;51.834;4.706;2022-12-18T10:49:22;-1.50;99.90
25214;DHT22;13160;51.834;4.706;2022-12-18T10:52:05;-1.40;99.90
25214;DHT22;13160;51.834;4.706;2022-12-18T10:54:36;-1.40;99.90
25214;DHT22;13160;51.834;4.706;2022-12-18T10:57:19;-1.40;99.90
25214;DHT22;13160;51.834;4.706;2022-12-18T11:00:18;-1.30;99.90
25214;DHT22;13160;51.834;4.706;2022-12-18T11:02:53;-1.30;99.90
25214;DHT22;13160;51.834;4.706;2022-12-18T11:05:26;-1.30;99.90
25214;DHT22;13160;51.834;4.706;2022-12-18T11:07:59;-1.30;99.90
25214;DHT22;13160;51.834;4.706;2022-12-18T11:10:31;-1.20;99.90
25214;DHT22;13160;51.834;4.706;2022-12-18T11:13:18;-1.20;99.90
25214;DHT22;13160;51.834;4.706;2022-12-18T11:15:48;-1.20;99.90
25214;DHT22;13160;51.834;4.706;2022-12-18T11:18:20;-1.20;99.90
25214;DHT22;13160;51.834;4.706;2022-12-18T11:20:52;-1.10;99.90
25214;DHT22;13160;51.834;4.706;2022-12-18T11:23:26;-1.10;99.90
25214;DHT22;13160;51.834;4.706;2022-12-18T11:25:57;-1.00;99.90
25214;DHT22;13160;51.834;4.706;2022-12-18T11:28:38;-1.00;99.90
25214;DHT22;13160;51.834;4.706;2022-12-18T11:31:19;-0.90;99.90
25214;DHT22;13160;51.834;4.706;2022-12-18T11:33:56;-0.90;99.90
25214;DHT22;13160;51.834;4.706;2022-12-18T11:36:48;-0.90;99.90
25214;DHT22;13160;51.834;4.706;2022-12-18T11:39:23;-0.90;99.90
25214;DHT22;13160;51.834;4.706;2022-12-18T11:41:59;-0.80;99.90
25214;DHT22;13160;51.834;4.706;2022-12-18T11:44:46;-0.80;99.90
25214;DHT22;13160;51.834;4.706;2022-12-18T11:47:26;-0.70;99.90
25214;DHT22;13160;51.834;4.706;2022-12-18T11:50:00;-0.70;99.90
25214;DHT22;13160;51.834;4.706;2022-12-18T11:52:34;-0.70;99.90
25214;DHT22;13160;51.834;4.706;2022-12-18T11:55:11;-0.70;99.90
25214;DHT22;13160;51.834;4.706;2022-12-18T11:57:51;-0.60;99.90
25214;DHT22;13160;51.834;4.706;2022-12-18T12:00:21;-0.60;99.90
25214;DHT22;13160;51.834;4.706;2022-12-18T12:03:18;-0.60;99.90
25214;DHT22;13160;51.834;4.706;2022-12-18T12:06:15;-0.60;99.90
25214;DHT22;13160;51.834;4.706;2022-12-18T12:09:01;-0.60;99.90
25214;DHT22;13160;51.834;4.706;2022-12-18T12:11:43;-0.50;99.90
25214;DHT22;13160;51.834;4.706;2022-12-18T12:14:30;-0.50;99.90
25214;DHT22;13160;51.834;4.706;2022-12-18T12:17:14;-0.50;99.90
25214;DHT22;13160;51.834;4.706;2022-12-18T12:19:52;-0.40;99.90
25214;DHT22;13160;51.834;4.706;2022-12-18T12:22:32;-0.40;99.90
25214;DHT22;13160;51.834;4.706;2022-12-18T12:25:16;-0.40;99.90
25214;DHT22;13160;51.834;4.706;2022-12-18T12:27:58;-0.30;99.90
25214;DHT22;13160;51.834;4.706;2022-12-18T12:30:39;-0.30;99.90
25214;DHT22;13160;51.834;4.706;2022-12-18T12:33:23;-0.30;99.90
25214;DHT22;13160;51.834;4.706;2022-12-18T12:36:03;-0.30;99.90
25214;DHT22;13160;51.834;4.706;2022-12-18T12:38:41;-0.30;99.90
25214;DHT22;13160;51.834;4.706;2022-12-18T12:41:19;-0.20;99.90
25214;DHT22;13160;51.834;4.706;2022-12-18T12:44:15;-0.20;99.90
25214;DHT22;13160;51.834;4.706;2022-12-18T12:46:47;-0.20;99.90
25214;DHT22;13160;51.834;4.706;2022-12-18T12:49:19;-0.20;99.90
25214;DHT22;13160;51.834;4.706;2022-12-18T12:51:55;-0.10;99.90
25214;DHT22;13160;51.834;4.706;2022-12-18T12:54:28;-0.10;99.90
25214;DHT22;13160;51.834;4.706;2022-12-18T12:57:01;-0.10;99.90
25214;DHT22;13160;51.834;4.706;2022-12-18T12:59:39;-0.10;99.90
25214;DHT22;13160;51.834;4.706;2022-12-18T13:02:20;0.00;99.90
25214;DHT22;13160;51.834;4.706;2022-12-18T13:04:56;0.00;99.90
25214;DHT22;13160;51.834;4.706;2022-12-18T13:07:32;0.00;99.90
25214;DHT22;13160;51.834;4.706;2022-12-18T13:10:27;0.10;99.90
25214;DHT22;13160;51.834;4.706;2022-12-18T13:13:02;0.10;99.90
25214;DHT22;13160;51.834;4.706;2022-12-18T13:15:38;0.10;99.90
25214;DHT22;13160;51.834;4.706;2022-12-18T13:18:14;0.10;99.90
25214;DHT22;13160;51.834;4.706;2022-12-18T13:20:47;0.20;99.90
25214;DHT22;13160;51.834;4.706;2022-12-18T13:23:37;0.20;99.90
25214;DHT22;13160;51.834;4.706;2022-12-18T13:26:31;0.20;99.90
25214;DHT22;13160;51.834;4.706;2022-12-18T13:29:01;0.20;99.90
25214;DHT22;13160;51.834;4.706;2022-12-18T13:38:21;0.30;99.90
25214;DHT22;13160;51.834;4.706;2022-12-18T13:40:55;0.30;99.90
25214;DHT22;13160;51.834;4.706;2022-12-18T13:43:39;0.30;99.90
25214;DHT22;13160;51.834;4.706;2022-12-18T13:46:20;0.30;99.90
25214;DHT22;13160;51.834;4.706;2022-12-18T13:48:56;0.30;99.90
25214;DHT22;13160;51.834;4.706;2022-12-18T13:51:27;0.30;99.90
25214;DHT22;13160;51.834;4.706;2022-12-18T13:53:59;0.30;99.90
25214;DHT22;13160;51.834;4.706;2022-12-18T13:56:30;0.30;99.90
25214;DHT22;13160;51.834;4.706;2022-12-18T13:59:15;0.30;99.90
25214;DHT22;13160;51.834;4.706;2022-12-18T14:01:52;0.30;99.90
25214;DHT22;13160;51.834;4.706;2022-12-18T14:04:26;0.30;99.90
25214;DHT22;13160;51.834;4.706;2022-12-18T14:06:57;0.30;99.90
25214;DHT22;13160;51.834;4.706;2022-12-18T14:09:33;0.30;99.90
25214;DHT22;13160;51.834;4.706;2022-12-18T14:12:11;0.40;99.90
25214;DHT22;13160;51.834;4.706;2022-12-18T14:15:00;0.40;99.90
25214;DHT22;13160;51.834;4.706;2022-12-18T14:17:30;0.40;99.90
25214;DHT22;13160;51.834;4.706;2022-12-18T14:20:02;0.40;99.90
25214;DHT22;13160;51.834;4.706;2022-12-18T14:22:31;0.40;99.90
25214;DHT22;13160;51.834;4.706;2022-12-18T14:25:15;0.40;99.90
25214;DHT22;13160;51.834;4.706;2022-12-18T14:27:48;0.40;99.90
25214;DHT22;13160;51.834;4.706;2022-12-18T14:30:25;0.50;99.90
25214;DHT22;13160;51.834;4.706;2022-12-18T14:33:03;0.50;99.90
25214;DHT22;13160;51.834;4.706;2022-12-18T14:35:35;0.50;99.90
25214;DHT22;13160;51.834;4.706;2022-12-18T14:38:18;0.50;99.90
25214;DHT22;13160;51.834;4.706;2022-12-18T14:40:53;0.50;99.90
25214;DHT22;13160;51.834;4.706;2022-12-18T14:43:29;0.50;99.90
25214;DHT22;13160;51.834;4.706;2022-12-18T14:46:00;0.50;99.90
25214;DHT22;13160;51.834;4.706;2022-12-18T14:48:37;0.50;99.90
25214;DHT22;13160;51.834;4.706;2022-12-18T14:51:16;0.50;99.90
25214;DHT22;13160;51.834;4.706;2022-12-18T14:53:47;0.50;99.90
25214;DHT22;13160;51.834;4.706;2022-12-18T14:56:22;0.50;99.90
25214;DHT22;13160;51.834;4.706;2022-12-18T14:59:26;0.50;99.90
25214;DHT22;13160;51.834;4.706;2022-12-18T15:02:31;0.50;99.90
25214;DHT22;13160;51.834;4.706;2022-12-18T15:05:31;0.50;99.90
25214;DHT22;13160;51.834;4.706;2022-12-18T15:08:02;0.60;99.90
25214;DHT22;13160;51.834;4.706;2022-12-18T15:10:32;0.60;99.90
25214;DHT22;13160;51.834;4.706;2022-12-18T15:13:09;0.60;99.90
25214;DHT22;13160;51.834;4.706;2022-12-18T15:15:51;0.60;99.90
25214;DHT22;13160;51.834;4.706;2022-12-18T15:18:25;0.60;99.90
25214;DHT22;13160;51.834;4.706;2022-12-18T15:20:59;0.60;99.90
25214;DHT22;13160;51.834;4.706;2022-12-18T15:23:45;0.60;99.90
25214;DHT22;13160;51.834;4.706;2022-12-18T15:26:16;0.60;99.90
25214;DHT22;13160;51.834;4.706;2022-12-18T15:28:46;0.60;99.90
25214;DHT22;13160;51.834;4.706;2022-12-18T15:31:28;0.60;99.90
25214;DHT22;13160;51.834;4.706;2022-12-18T15:34:09;0.60;99.90
25214;DHT22;13160;51.834;4.706;2022-12-18T15:36:42;0.60;99.90
25214;DHT22;13160;51.834;4.706;2022-12-18T15:39:14;0.70;99.90
25214;DHT22;13160;51.834;4.706;2022-12-18T15:42:04;0.70;99.90
25214;DHT22;13160;51.834;4.706;2022-12-18T15:45:00;0.60;99.90
25214;DHT22;13160;51.834;4.706;2022-12-18T15:48:27;0.70;99.90
25214;DHT22;13160;51.834;4.706;2022-12-18T15:51:12;0.70;99.90
25214;DHT22;13160;51.834;4.706;2022-12-18T15:53:43;0.70;99.90
25214;DHT22;13160;51.834;4.706;2022-12-18T15:56:15;0.70;99.90
25214;DHT22;13160;51.834;4.706;2022-12-18T15:59:01;0.70;99.90
25214;DHT22;13160;51.834;4.706;2022-12-18T16:01:32;0.80;99.90
25214;DHT22;13160;51.834;4.706;2022-12-18T16:04:09;0.80;99.90
25214;DHT22;13160;51.834;4.706;2022-12-18T16:06:39;0.80;99.90
25214;DHT22;13160;51.834;4.706;2022-12-18T16:09:27;0.80;99.90
25214;DHT22;13160;51.834;4.706;2022-12-18T16:11:57;0.80;99.90
25214;DHT22;13160;51.834;4.706;2022-12-18T16:14:28;0.80;99.90
25214;DHT22;13160;51.834;4.706;2022-12-18T16:17:15;0.90;99.90
25214;DHT22;13160;51.834;4.706;2022-12-18T16:19:44;0.90;99.90
25214;DHT22;13160;51.834;4.706;2022-12-18T16:22:19;0.90;99.90